Grizzly Air Cargo 5280


KSMF
Sacramento International Airport
Sacramento, California, US
KDEN
Denver International Airport
Denver, Colorado, US

Activity Log

Date Flight Route Aircraft Duration
No Flights Yet

Route Details

Aircraft Information
Primary: Boeing 737-800BCF
Backup: Not Available
Route Data
Distance: 789nm
Sched. Duration: 2h 14m
Avg. Duration: 0h 00m (-214m)
Times Flown: 0
Recm'd Route: SCTWN2 RALEY INSLO Q126 GAROT EKR KAILE2
Planned Altitude: 39,000ft
Origin Wx: KSMF 200153Z 00000KT 10SM CLR 26/08 A2987 RMK AO2 SLP115 T02610083
Dest. Wx: KDEN 200153Z 27005KT 10SM BKN160 BKN220 11/01 A2995 RMK AO2 SLP119 T01060011
Notes:

Financial History
Total Freight: 0lbs
Average Load: 0lbs/flt
Fuel Used: 0lbs
Avg. Fuel Used: 0lbs/flt
Fuel Expense: $0
Avg. Fuel Expense: $0
Avg. Fuel Cost: $0/lbs
Total Gross Income: $0
Pilot Pay: $0
Total Expenses: $0
Total Revenue: $0
Average Revenue: $0